createdAt,value
2023-04-15T00:00:05.638Z,5.98
2023-04-15T00:00:37.516Z,5.98
2023-04-15T00:01:09.960Z,5.97
2023-04-15T00:01:41.649Z,5.97
2023-04-15T00:02:18.740Z,6.04
2023-04-15T00:02:50.661Z,5.98
2023-04-15T00:03:23.002Z,6.04
2023-04-15T00:03:55.898Z,5.99
2023-04-15T00:04:28.446Z,5.95
2023-04-15T00:05:00.208Z,5.91
2023-04-15T00:05:32.579Z,6.02
2023-04-15T00:06:04.210Z,6.02
2023-04-15T00:06:37.614Z,6.04
2023-04-15T00:07:09.294Z,6.01
2023-04-15T00:07:41.396Z,5.98
2023-04-15T00:08:13.725Z,5.99
2023-04-15T00:08:49.181Z,5.98
2023-04-15T00:09:21.202Z,5.94
2023-04-15T00:09:55.252Z,5.97
2023-04-15T00:10:27.925Z,5.97
2023-04-15T00:11:03.220Z,5.99
2023-04-15T00:11:35.075Z,5.98
2023-04-15T00:12:06.842Z,5.94
2023-04-15T00:12:38.542Z,5.95
2023-04-15T00:13:10.441Z,6.02
2023-04-15T00:13:42.071Z,6.07
2023-04-15T00:14:13.908Z,6.05
2023-04-15T00:14:45.547Z,6.11
2023-04-15T00:15:17.553Z,6.14
2023-04-15T00:15:49.225Z,6.12
2023-04-15T00:16:21.385Z,6.19
2023-04-15T00:16:56.400Z,6.21
2023-04-15T00:17:28.202Z,6.25
2023-04-15T00:17:59.857Z,6.21
2023-04-15T00:18:31.784Z,6.18
2023-04-15T00:19:03.613Z,6.14
2023-04-15T00:19:35.325Z,6.12
2023-04-15T00:20:07.332Z,6.15
2023-04-15T00:20:39.001Z,6.24
2023-04-15T00:21:10.642Z,6.18
2023-04-15T00:21:42.327Z,6.24
2023-04-15T00:22:13.999Z,6.28
2023-04-15T00:22:46.451Z,6.28
2023-04-15T00:23:18.409Z,6.19
2023-04-15T00:23:52.757Z,6.17
2023-04-15T00:24:24.613Z,6.17
2023-04-15T00:24:56.513Z,6.14
2023-04-15T00:25:28.368Z,6.11
2023-04-15T00:25:59.958Z,6.17
2023-04-15T00:26:32.056Z,6.14
2023-04-15T00:27:04.387Z,6.17
2023-04-15T00:27:36.087Z,6.17
2023-04-15T00:28:08.659Z,6.18
2023-04-15T00:28:40.259Z,6.24
2023-04-15T00:29:11.838Z,6.22
2023-04-15T00:29:43.599Z,6.26
2023-04-15T00:30:15.239Z,6.24
2023-04-15T00:30:47.440Z,6.26
2023-04-15T00:31:19.159Z,6.28
2023-04-15T00:31:51.008Z,6.25
2023-04-15T00:32:22.691Z,6.26
2023-04-15T00:32:54.374Z,6.28
2023-04-15T00:33:26.023Z,6.25
2023-04-15T00:33:58.566Z,6.28
2023-04-15T00:34:30.538Z,6.28
2023-04-15T00:35:02.370Z,6.26
2023-04-15T00:35:34.741Z,6.24
2023-04-15T00:36:07.368Z,6.25
2023-04-15T00:36:39.007Z,6.24
2023-04-15T00:37:10.947Z,6.22
2023-04-15T00:37:44.809Z,6.26
2023-04-15T00:38:18.049Z,6.26
2023-04-15T00:38:49.619Z,6.29
2023-04-15T00:39:21.245Z,6.30
2023-04-15T00:39:52.931Z,6.36
2023-04-15T00:40:24.941Z,6.35
2023-04-15T00:40:56.685Z,6.38
2023-04-15T00:41:28.455Z,6.45
2023-04-15T00:42:00.544Z,6.49
2023-04-15T00:42:32.325Z,6.49
2023-04-15T00:43:04.500Z,6.50
2023-04-15T00:43:36.569Z,6.43
2023-04-15T00:44:08.427Z,6.53
2023-04-15T00:44:40.105Z,6.49
2023-04-15T00:45:12.254Z,6.50
2023-04-15T00:45:43.931Z,6.52
2023-04-15T00:46:17.736Z,6.52
2023-04-15T00:46:51.956Z,6.47
2023-04-15T00:47:23.882Z,6.57
2023-04-15T00:47:56.109Z,6.56
2023-04-15T00:48:28.321Z,6.52
2023-04-15T00:49:01.276Z,6.49
2023-04-15T00:49:33.236Z,6.50
2023-04-15T00:50:05.324Z,6.47
2023-04-15T00:50:36.917Z,6.47
2023-04-15T00:51:09.658Z,6.52
2023-04-15T00:51:41.555Z,6.50
2023-04-15T00:52:13.228Z,6.47
2023-04-15T00:52:44.802Z,6.54
2023-04-15T00:53:16.507Z,6.53
2023-04-15T00:53:48.093Z,6.57
2023-04-15T00:54:19.905Z,6.54
2023-04-15T00:54:51.613Z,6.54
2023-04-15T00:55:23.737Z,6.56
2023-04-15T00:55:56.170Z,6.49
2023-04-15T00:56:29.416Z,6.56
2023-04-15T00:57:01.828Z,6.47
2023-04-15T00:57:33.872Z,6.53
2023-04-15T00:58:05.495Z,6.59
2023-04-15T00:58:37.502Z,6.54
2023-04-15T00:59:09.618Z,6.56
2023-04-15T00:59:41.288Z,6.62
2023-04-15T01:00:13.266Z,6.56
2023-04-15T01:00:45.188Z,6.50
2023-04-15T01:01:17.660Z,6.49
2023-04-15T01:01:49.561Z,6.47
2023-04-15T01:02:21.910Z,6.49
2023-04-15T01:02:53.839Z,6.47
2023-04-15T01:03:25.918Z,6.47
2023-04-15T01:04:00.939Z,6.46
2023-04-15T01:04:32.842Z,6.45
2023-04-15T01:05:05.146Z,6.47
2023-04-15T01:05:36.970Z,6.46
2023-04-15T01:06:08.806Z,6.47
2023-04-15T01:06:41.177Z,6.52
2023-04-15T01:07:12.803Z,6.53
2023-04-15T01:07:44.453Z,6.50
2023-04-15T01:08:16.166Z,6.57
2023-04-15T01:08:47.800Z,6.62
2023-04-15T01:09:19.435Z,6.73
2023-04-15T01:09:51.315Z,6.77
2023-04-15T01:10:22.989Z,6.81
2023-04-15T01:10:57.108Z,6.72
2023-04-15T01:11:29.765Z,6.69
2023-04-15T01:12:02.657Z,6.70
2023-04-15T01:12:34.431Z,6.73
2023-04-15T01:13:06.028Z,6.70
2023-04-15T01:13:37.664Z,6.75
2023-04-15T01:14:10.253Z,6.73
2023-04-15T01:14:42.058Z,6.75
2023-04-15T01:15:13.709Z,6.80
2023-04-15T01:15:45.841Z,6.75
2023-04-15T01:16:18.224Z,6.73
2023-04-15T01:16:49.928Z,6.70
2023-04-15T01:17:21.753Z,6.67
2023-04-15T01:17:53.465Z,6.63
2023-04-15T01:18:25.371Z,6.65
2023-04-15T01:18:57.057Z,6.63
2023-04-15T01:19:29.000Z,6.69
2023-04-15T01:20:00.756Z,6.69
2023-04-15T01:20:32.909Z,6.73
2023-04-15T01:21:05.649Z,6.66
2023-04-15T01:21:41.027Z,6.69
2023-04-15T01:22:12.719Z,6.70
2023-04-15T01:22:46.062Z,6.79
2023-04-15T01:23:18.000Z,6.79
2023-04-15T01:23:52.388Z,6.81
2023-04-15T01:24:26.218Z,6.84
2023-04-15T01:25:08.425Z,6.84
2023-04-15T01:25:42.581Z,6.83
2023-04-15T01:26:14.927Z,6.83
2023-04-15T01:26:46.798Z,6.83
2023-04-15T01:27:18.515Z,6.79
2023-04-15T01:27:50.124Z,6.76
2023-04-15T01:28:21.965Z,6.70
2023-04-15T01:28:53.555Z,6.73
2023-04-15T01:29:25.256Z,6.75
2023-04-15T01:29:56.850Z,6.75
2023-04-15T01:30:28.450Z,6.75
2023-04-15T01:31:11.817Z,6.66
2023-04-15T01:31:53.206Z,6.72
2023-04-15T01:32:25.109Z,6.77
2023-04-15T01:32:56.812Z,6.72
2023-04-15T01:33:28.535Z,6.62
2023-04-15T01:34:00.223Z,6.67
2023-04-15T01:34:34.239Z,6.72
2023-04-15T01:35:07.838Z,6.72
2023-04-15T01:35:39.490Z,6.73
2023-04-15T01:36:11.264Z,6.84
2023-04-15T01:36:42.943Z,6.83
2023-04-15T01:37:14.583Z,6.83
2023-04-15T01:37:47.395Z,6.90
2023-04-15T01:38:19.375Z,6.84
2023-04-15T01:38:51.476Z,6.86
2023-04-15T01:39:23.514Z,6.80
2023-04-15T01:39:55.119Z,6.83
2023-04-15T01:40:26.736Z,6.86
2023-04-15T01:40:59.412Z,6.86
2023-04-15T01:41:31.097Z,6.93
2023-04-15T01:42:03.433Z,6.88
2023-04-15T01:42:36.762Z,6.90
2023-04-15T01:43:08.421Z,6.84
2023-04-15T01:43:40.227Z,6.81
2023-04-15T01:44:11.903Z,6.79
2023-04-15T01:44:43.520Z,6.80
2023-04-15T01:45:15.474Z,6.77
2023-04-15T01:45:47.113Z,6.81
2023-04-15T01:46:18.800Z,6.83
2023-04-15T01:46:50.482Z,6.80
2023-04-15T01:47:22.572Z,6.72
2023-04-15T01:47:54.516Z,6.77
2023-04-15T01:48:26.329Z,6.81
2023-04-15T01:48:58.152Z,6.80
2023-04-15T01:49:29.989Z,6.76
2023-04-15T01:50:01.823Z,6.72
2023-04-15T01:50:33.606Z,6.76
2023-04-15T01:51:05.776Z,6.80
2023-04-15T01:51:37.392Z,6.79
2023-04-15T01:52:09.276Z,6.81
2023-04-15T01:52:41.136Z,6.79
2023-04-15T01:53:12.728Z,6.72
2023-04-15T01:53:44.401Z,6.76
2023-04-15T01:54:16.332Z,6.79
2023-04-15T01:54:48.015Z,6.83
2023-04-15T01:55:19.678Z,6.86
2023-04-15T01:55:52.124Z,6.84
2023-04-15T01:56:26.781Z,6.83
2023-04-15T01:56:58.863Z,6.81
2023-04-15T01:57:30.775Z,6.84
2023-04-15T01:58:02.666Z,6.87
2023-04-15T01:58:34.259Z,6.97
2023-04-15T01:59:06.319Z,6.93
2023-04-15T01:59:38.347Z,6.94
2023-04-15T02:00:10.495Z,6.80
2023-04-15T02:00:42.916Z,6.83
2023-04-15T02:01:14.713Z,6.87
2023-04-15T02:01:46.662Z,6.86
2023-04-15T02:02:18.534Z,6.86
2023-04-15T02:02:50.734Z,6.91
2023-04-15T02:03:22.514Z,6.94
2023-04-15T02:03:54.207Z,6.91
2023-04-15T02:04:25.943Z,6.94
2023-04-15T02:04:58.104Z,7.01
2023-04-15T02:05:29.755Z,6.94
2023-04-15T02:06:01.330Z,7.03
2023-04-15T02:06:33.445Z,7.11
2023-04-15T02:07:05.075Z,7.04
2023-04-15T02:07:37.246Z,7.04
2023-04-15T02:08:09.584Z,6.93
2023-04-15T02:08:41.251Z,6.93
2023-04-15T02:09:12.979Z,6.98
2023-04-15T02:09:46.185Z,6.97
2023-04-15T02:10:17.990Z,6.88
2023-04-15T02:10:49.638Z,6.87
2023-04-15T02:11:21.294Z,6.90
2023-04-15T02:11:54.392Z,6.86
2023-04-15T02:12:26.106Z,6.88
2023-04-15T02:12:57.719Z,6.86
2023-04-15T02:13:29.742Z,6.87
2023-04-15T02:14:01.408Z,6.88
2023-04-15T02:14:33.060Z,6.75
2023-04-15T02:15:05.439Z,6.80
2023-04-15T02:15:37.218Z,6.80
2023-04-15T02:16:19.574Z,6.87
2023-04-15T02:16:51.716Z,6.90
2023-04-15T02:17:23.498Z,6.86
2023-04-15T02:17:55.526Z,6.81
2023-04-15T02:18:27.371Z,6.77
2023-04-15T02:19:00.469Z,6.75
2023-04-15T02:19:32.255Z,6.77
2023-04-15T02:20:08.666Z,6.75
2023-04-15T02:20:40.571Z,6.69
2023-04-15T02:21:12.146Z,6.65
2023-04-15T02:21:43.776Z,6.70
2023-04-15T02:22:18.669Z,6.62
2023-04-15T02:22:50.744Z,6.63
2023-04-15T02:23:22.339Z,6.66
2023-04-15T02:23:54.273Z,6.65
2023-04-15T02:24:26.488Z,6.63
2023-04-15T02:24:58.055Z,6.60
2023-04-15T02:25:29.674Z,6.65
2023-04-15T02:26:01.594Z,6.66
2023-04-15T02:26:33.535Z,6.73
2023-04-15T02:27:05.146Z,6.69
2023-04-15T02:27:36.804Z,6.75
2023-04-15T02:28:08.423Z,6.75
2023-04-15T02:28:40.120Z,6.76
2023-04-15T02:29:11.850Z,6.79
2023-04-15T02:29:44.808Z,6.76
2023-04-15T02:30:16.538Z,6.75
2023-04-15T02:30:52.959Z,6.79
2023-04-15T02:31:25.537Z,6.73
2023-04-15T02:31:57.236Z,6.67
2023-04-15T02:32:29.282Z,6.69
2023-04-15T02:33:01.810Z,6.67
2023-04-15T02:33:33.817Z,6.65
2023-04-15T02:34:05.552Z,6.65
2023-04-15T02:34:39.386Z,6.63
2023-04-15T02:35:11.988Z,6.59
2023-04-15T02:35:45.384Z,6.63
2023-04-15T02:36:17.306Z,6.62
2023-04-15T02:36:49.820Z,6.66
2023-04-15T02:37:21.465Z,6.69
2023-04-15T02:37:53.197Z,6.69
2023-04-15T02:38:25.014Z,6.76
2023-04-15T02:38:57.716Z,6.76
2023-04-15T02:39:29.358Z,6.81
2023-04-15T02:40:01.393Z,6.83
2023-04-15T02:40:33.409Z,6.84
2023-04-15T02:41:05.029Z,6.88
2023-04-15T02:41:36.767Z,6.90
2023-04-15T02:42:08.382Z,6.98
2023-04-15T02:42:41.248Z,7.01
2023-04-15T02:43:12.856Z,6.93
2023-04-15T02:43:44.453Z,6.96
2023-04-15T02:44:17.705Z,6.91
2023-04-15T02:44:49.341Z,6.93
2023-04-15T02:45:24.196Z,6.93
2023-04-15T02:45:55.941Z,6.91
2023-04-15T02:46:27.693Z,6.86
2023-04-15T02:46:59.422Z,6.81
2023-04-15T02:47:31.364Z,6.79
2023-04-15T02:48:06.438Z,6.83
2023-04-15T02:48:38.236Z,6.80
2023-04-15T02:49:11.005Z,6.77
2023-04-15T02:49:42.663Z,6.73
2023-04-15T02:50:15.225Z,6.73
2023-04-15T02:50:48.189Z,6.73
2023-04-15T02:51:22.756Z,6.75
2023-04-15T02:51:55.562Z,6.73
2023-04-15T02:52:27.592Z,6.81
2023-04-15T02:53:01.596Z,6.83
2023-04-15T02:53:33.431Z,6.84
2023-04-15T02:54:05.074Z,6.83
2023-04-15T02:54:36.886Z,6.86
2023-04-15T02:55:09.870Z,6.84
2023-04-15T02:55:42.899Z,6.84
2023-04-15T02:56:19.481Z,6.88
2023-04-15T02:56:52.252Z,6.88
2023-04-15T02:57:23.827Z,6.87
2023-04-15T02:57:56.013Z,6.79
2023-04-15T02:58:27.764Z,6.80
2023-04-15T02:58:59.613Z,6.80
2023-04-15T02:59:31.311Z,6.88
2023-04-15T03:00:04.810Z,6.90
2023-04-15T03:00:36.469Z,6.88
2023-04-15T03:01:11.131Z,6.94
2023-04-15T03:01:43.039Z,6.96
2023-04-15T03:02:14.856Z,6.96
2023-04-15T03:02:47.110Z,6.96
2023-04-15T03:03:19.179Z,6.91
2023-04-15T03:03:51.004Z,6.96
2023-04-15T03:04:22.725Z,6.94
2023-04-15T03:04:55.127Z,6.93
2023-04-15T03:05:27.118Z,6.91
2023-04-15T03:05:58.744Z,6.88
2023-04-15T03:06:31.000Z,6.87
2023-04-15T03:07:02.696Z,6.86
2023-04-15T03:07:34.320Z,6.84
2023-04-15T03:08:06.098Z,6.84
2023-04-15T03:08:37.749Z,6.84
2023-04-15T03:09:09.610Z,6.79
2023-04-15T03:09:41.366Z,6.83
2023-04-15T03:10:13.133Z,6.81
2023-04-15T03:10:44.745Z,6.81
2023-04-15T03:11:17.103Z,6.87
2023-04-15T03:11:48.705Z,6.86
2023-04-15T03:12:20.302Z,6.84
2023-04-15T03:12:51.881Z,6.80
2023-04-15T03:13:24.609Z,6.87
2023-04-15T03:13:56.352Z,6.88
2023-04-15T03:14:27.960Z,6.96
2023-04-15T03:15:00.482Z,6.93
2023-04-15T03:15:33.181Z,6.93
2023-04-15T03:16:05.829Z,6.94
2023-04-15T03:16:37.544Z,6.93
2023-04-15T03:17:09.249Z,6.97
2023-04-15T03:17:41.014Z,7.03
2023-04-15T03:18:12.795Z,7.03
2023-04-15T03:18:44.444Z,7.04
2023-04-15T03:19:16.688Z,7.00
2023-04-15T03:19:48.263Z,6.97
2023-04-15T03:20:20.453Z,7.01
2023-04-15T03:20:52.082Z,6.98
2023-04-15T03:21:24.068Z,7.00
2023-04-15T03:21:55.693Z,6.94
2023-04-15T03:22:27.324Z,6.97
2023-04-15T03:22:58.890Z,6.97
2023-04-15T03:23:31.687Z,6.97
2023-04-15T03:24:03.409Z,6.96
2023-04-15T03:24:35.063Z,6.97
2023-04-15T03:25:07.046Z,6.97
2023-04-15T03:25:38.656Z,7.00
2023-04-15T03:26:10.430Z,7.03
2023-04-15T03:26:42.056Z,7.01
2023-04-15T03:27:13.875Z,7.05
2023-04-15T03:27:45.630Z,7.01
2023-04-15T03:28:17.240Z,7.07
2023-04-15T03:28:48.948Z,7.11
2023-04-15T03:29:20.833Z,7.14
2023-04-15T03:29:52.414Z,7.08
2023-04-15T03:30:24.069Z,7.01
2023-04-15T03:30:55.973Z,7.00
2023-04-15T03:31:27.803Z,6.98
2023-04-15T03:31:59.489Z,6.97
2023-04-15T03:32:31.726Z,6.97
2023-04-15T03:33:03.501Z,6.93
2023-04-15T03:33:35.057Z,6.97
2023-04-15T03:34:06.759Z,6.98
2023-04-15T03:34:38.379Z,6.91
2023-04-15T03:35:10.276Z,6.97
2023-04-15T03:35:42.160Z,6.96
2023-04-15T03:36:13.834Z,7.04
2023-04-15T03:36:46.875Z,7.01
2023-04-15T03:37:18.485Z,6.97
2023-04-15T03:37:50.099Z,6.97
2023-04-15T03:38:21.843Z,6.97
2023-04-15T03:38:53.472Z,6.93
2023-04-15T03:39:25.108Z,6.91
2023-04-15T03:39:56.747Z,6.91
2023-04-15T03:40:28.439Z,6.90
2023-04-15T03:41:00.128Z,6.93
2023-04-15T03:41:32.940Z,6.90
2023-04-15T03:42:04.724Z,6.96
2023-04-15T03:42:36.407Z,6.90
2023-04-15T03:43:08.070Z,6.90
2023-04-15T03:43:39.632Z,6.88
2023-04-15T03:44:11.241Z,6.91
2023-04-15T03:44:42.925Z,6.87
2023-04-15T03:45:14.719Z,6.84
2023-04-15T03:45:46.417Z,6.88
2023-04-15T03:46:18.822Z,6.91
2023-04-15T03:46:50.966Z,6.94
2023-04-15T03:47:22.968Z,6.90
2023-04-15T03:47:54.616Z,6.88
2023-04-15T03:48:26.640Z,6.90
2023-04-15T03:48:58.786Z,6.90
2023-04-15T03:49:30.536Z,6.93
2023-04-15T03:50:02.135Z,6.84
2023-04-15T03:50:33.853Z,6.87
2023-04-15T03:51:05.973Z,6.86
2023-04-15T03:51:37.640Z,6.84
2023-04-15T03:52:09.320Z,6.83
2023-04-15T03:52:41.060Z,6.86
2023-04-15T03:53:12.874Z,6.87
2023-04-15T03:53:44.616Z,6.87
2023-04-15T03:54:16.346Z,6.86
2023-04-15T03:54:47.956Z,6.87
2023-04-15T03:55:20.304Z,6.93
2023-04-15T03:55:52.440Z,6.87
2023-04-15T03:56:24.206Z,6.87
2023-04-15T03:56:56.023Z,6.86
2023-04-15T03:57:27.675Z,6.83
2023-04-15T03:57:59.281Z,6.84
2023-04-15T03:58:30.866Z,6.81
2023-04-15T03:59:02.739Z,6.83
2023-04-15T03:59:34.566Z,6.86
2023-04-15T04:00:07.407Z,6.84
2023-04-15T04:00:39.878Z,6.87
2023-04-15T04:01:11.787Z,6.81
2023-04-15T04:01:43.583Z,6.84
2023-04-15T04:02:15.727Z,6.90
2023-04-15T04:02:47.493Z,6.86
2023-04-15T04:03:19.587Z,6.88
2023-04-15T04:03:51.709Z,6.88
2023-04-15T04:04:23.757Z,6.93
2023-04-15T04:04:55.432Z,6.91
2023-04-15T04:05:27.039Z,6.88
2023-04-15T04:05:58.692Z,6.91
2023-04-15T04:06:31.192Z,6.90
2023-04-15T04:07:02.817Z,6.96
2023-04-15T04:07:34.431Z,7.00
2023-04-15T04:08:06.517Z,6.98
2023-04-15T04:08:38.246Z,7.03
2023-04-15T04:09:09.878Z,6.94
2023-04-15T04:09:42.172Z,7.03
2023-04-15T04:10:13.806Z,7.05
2023-04-15T04:10:45.475Z,7.05
2023-04-15T04:11:17.246Z,7.05
2023-04-15T04:11:48.863Z,7.00
2023-04-15T04:12:20.608Z,7.05
2023-04-15T04:12:52.248Z,7.11
2023-04-15T04:13:24.004Z,7.12
2023-04-15T04:13:55.664Z,7.15
2023-04-15T04:14:29.829Z,7.08
2023-04-15T04:15:01.800Z,7.09
2023-04-15T04:15:33.809Z,7.09
2023-04-15T04:16:05.990Z,7.14
2023-04-15T04:16:37.832Z,7.09
2023-04-15T04:17:09.596Z,7.14
2023-04-15T04:17:41.537Z,7.05
2023-04-15T04:18:13.266Z,7.01
2023-04-15T04:18:44.929Z,6.98
2023-04-15T04:19:19.594Z,7.04
2023-04-15T04:19:51.181Z,7.00
2023-04-15T04:20:23.073Z,7.01
2023-04-15T04:20:55.483Z,7.01
2023-04-15T04:21:27.200Z,7.00
2023-04-15T04:21:58.948Z,6.98
2023-04-15T04:22:30.673Z,6.98
2023-04-15T04:23:02.290Z,6.98
2023-04-15T04:23:33.934Z,6.97
2023-04-15T04:24:05.733Z,6.98
2023-04-15T04:24:37.300Z,7.04
2023-04-15T04:25:10.303Z,7.03
2023-04-15T04:25:42.258Z,7.03
2023-04-15T04:26:13.921Z,7.04
2023-04-15T04:26:45.490Z,7.07
2023-04-15T04:27:17.082Z,7.08
2023-04-15T04:27:48.665Z,7.11
2023-04-15T04:28:20.254Z,7.08
2023-04-15T04:28:52.249Z,7.08
2023-04-15T04:29:23.943Z,7.01
2023-04-15T04:29:55.643Z,6.98
2023-04-15T04:30:27.329Z,6.91
2023-04-15T04:30:59.095Z,6.98
2023-04-15T04:31:31.066Z,6.98
2023-04-15T04:32:02.844Z,6.96
2023-04-15T04:32:34.530Z,6.94
2023-04-15T04:33:07.333Z,6.98
2023-04-15T04:33:39.068Z,7.00
2023-04-15T04:34:10.925Z,7.00
2023-04-15T04:34:42.498Z,6.98
2023-04-15T04:35:14.076Z,6.98
2023-04-15T04:35:45.744Z,7.01
2023-04-15T04:36:17.336Z,7.00
2023-04-15T04:36:48.912Z,7.04
2023-04-15T04:37:20.610Z,7.04
2023-04-15T04:37:52.564Z,7.03
2023-04-15T04:38:24.171Z,7.08
2023-04-15T04:38:56.193Z,7.14
2023-04-15T04:39:27.820Z,7.17
2023-04-15T04:39:59.433Z,7.11
2023-04-15T04:40:31.274Z,7.18
2023-04-15T04:41:02.997Z,7.14
2023-04-15T04:41:34.828Z,7.17
2023-04-15T04:42:06.481Z,7.19
2023-04-15T04:42:39.879Z,7.18
2023-04-15T04:43:11.876Z,7.17
2023-04-15T04:43:43.489Z,7.24
2023-04-15T04:44:15.119Z,7.21
2023-04-15T04:44:47.262Z,7.22
2023-04-15T04:45:18.932Z,7.29
2023-04-15T04:45:50.601Z,7.27
2023-04-15T04:46:22.284Z,7.35
2023-04-15T04:46:54.099Z,7.28
2023-04-15T04:47:25.914Z,7.22
2023-04-15T04:47:57.644Z,7.25
2023-04-15T04:48:29.260Z,7.24
2023-04-15T04:49:01.067Z,7.19
2023-04-15T04:49:33.035Z,7.19
2023-04-15T04:50:05.043Z,7.15
2023-04-15T04:50:36.990Z,7.12
2023-04-15T04:51:09.533Z,7.14
2023-04-15T04:51:41.257Z,7.17
2023-04-15T04:52:13.080Z,7.24
2023-04-15T04:52:44.861Z,7.25
2023-04-15T04:53:16.516Z,7.27
2023-04-15T04:53:48.172Z,7.22
2023-04-15T04:54:19.838Z,7.29
2023-04-15T04:54:51.709Z,7.29
2023-04-15T04:55:23.358Z,7.28
2023-04-15T04:55:55.212Z,7.25
2023-04-15T04:56:27.143Z,7.32
2023-04-15T04:56:58.947Z,7.32
2023-04-15T04:57:30.619Z,7.28
2023-04-15T04:58:02.406Z,7.36
2023-04-15T04:58:34.048Z,7.41
2023-04-15T04:59:07.074Z,7.41
2023-04-15T04:59:39.024Z,7.38
2023-04-15T05:00:11.149Z,7.46
2023-04-15T05:00:42.922Z,7.48
2023-04-15T05:01:14.623Z,7.51
2023-04-15T05:01:46.743Z,7.51
2023-04-15T05:02:19.134Z,7.56
2023-04-15T05:02:51.152Z,7.62
2023-04-15T05:03:23.172Z,7.58
2023-04-15T05:03:55.765Z,7.65
2023-04-15T05:04:27.462Z,7.59
2023-04-15T05:04:59.085Z,7.54
2023-04-15T05:05:30.816Z,7.46
2023-04-15T05:06:06.156Z,7.44
2023-04-15T05:06:37.800Z,7.46
2023-04-15T05:07:09.415Z,7.52
2023-04-15T05:07:40.991Z,7.51
2023-04-15T05:08:12.674Z,7.51
2023-04-15T05:08:44.339Z,7.52
2023-04-15T05:09:16.112Z,7.39
2023-04-15T05:09:47.922Z,7.38
2023-04-15T05:10:19.588Z,7.34
2023-04-15T05:10:51.250Z,7.35
2023-04-15T05:11:22.844Z,7.42
2023-04-15T05:11:54.598Z,7.46
2023-04-15T05:12:26.314Z,7.49
2023-04-15T05:12:58.200Z,7.45
2023-04-15T05:13:30.250Z,7.49
2023-04-15T05:14:02.484Z,7.55
2023-04-15T05:14:34.164Z,7.52
2023-04-15T05:15:06.952Z,7.56
2023-04-15T05:15:41.352Z,7.55
2023-04-15T05:16:12.995Z,7.63
2023-04-15T05:16:44.582Z,7.66
2023-04-15T05:17:16.221Z,7.79
2023-04-15T05:17:47.949Z,7.85
2023-04-15T05:18:19.715Z,7.85
2023-04-15T05:18:51.955Z,7.83
2023-04-15T05:19:23.648Z,7.90
2023-04-15T05:19:55.340Z,7.91
2023-04-15T05:20:26.987Z,7.90
2023-04-15T05:20:59.073Z,7.85
2023-04-15T05:21:31.789Z,7.89
2023-04-15T05:22:03.456Z,7.86
2023-04-15T05:22:35.255Z,7.87
2023-04-15T05:23:07.177Z,7.90
2023-04-15T05:23:38.977Z,8.01
2023-04-15T05:24:10.755Z,8.14
2023-04-15T05:24:42.435Z,8.16
2023-04-15T05:25:14.031Z,8.13
2023-04-15T05:25:45.770Z,8.20
2023-04-15T05:26:17.826Z,8.33
2023-04-15T05:26:49.523Z,8.34
2023-04-15T05:27:22.612Z,8.35
2023-04-15T05:27:54.181Z,8.45
2023-04-15T05:28:25.815Z,8.48
2023-04-15T05:28:57.477Z,8.58
2023-04-15T05:29:29.674Z,8.45
2023-04-15T05:30:01.385Z,8.52
2023-04-15T05:30:32.964Z,8.56
2023-04-15T05:31:04.719Z,8.45
2023-04-15T05:31:36.884Z,8.48
2023-04-15T05:32:08.596Z,8.59
2023-04-15T05:32:40.458Z,8.62
2023-04-15T05:33:12.132Z,8.71
2023-04-15T05:33:44.060Z,8.49
2023-04-15T05:34:18.514Z,8.65
2023-04-15T05:34:50.297Z,8.54
2023-04-15T05:35:22.376Z,8.55
2023-04-15T05:35:53.962Z,8.71
2023-04-15T05:36:26.116Z,8.73
2023-04-15T05:36:57.731Z,8.71
2023-04-15T05:37:29.369Z,8.49
2023-04-15T05:38:01.219Z,8.52
2023-04-15T05:38:32.976Z,8.56
2023-04-15T05:39:04.598Z,8.62
2023-04-15T05:39:36.176Z,8.75
2023-04-15T05:40:10.657Z,8.89
2023-04-15T05:40:42.588Z,9.00
2023-04-15T05:41:17.789Z,9.03
2023-04-15T05:41:51.315Z,9.02
2023-04-15T05:42:23.062Z,9.06
2023-04-15T05:42:54.709Z,9.09
2023-04-15T05:43:26.392Z,9.03
2023-04-15T05:43:58.065Z,8.97
2023-04-15T05:44:29.663Z,9.12
2023-04-15T05:45:01.675Z,9.04
2023-04-15T05:45:33.286Z,9.14
2023-04-15T05:46:05.091Z,9.13
2023-04-15T05:46:36.748Z,9.22
2023-04-15T05:47:08.832Z,9.27
2023-04-15T05:47:40.499Z,9.22
2023-04-15T05:48:12.161Z,9.26
2023-04-15T05:48:43.810Z,9.16
2023-04-15T05:49:15.615Z,9.14
2023-04-15T05:49:47.228Z,9.14
2023-04-15T05:50:18.877Z,9.17
2023-04-15T05:50:50.893Z,9.22
2023-04-15T05:51:22.619Z,9.51
2023-04-15T05:51:54.285Z,9.47
2023-04-15T05:52:26.382Z,9.52
2023-04-15T05:52:58.000Z,9.41
2023-04-15T05:53:29.624Z,9.17
2023-04-15T05:54:01.426Z,9.12
2023-04-15T05:54:33.569Z,9.12
2023-04-15T05:55:05.576Z,9.19
2023-04-15T05:55:37.264Z,9.37
2023-04-15T05:56:08.902Z,9.35
2023-04-15T05:56:40.617Z,9.26
2023-04-15T05:57:12.212Z,9.30
2023-04-15T05:57:43.825Z,9.34
2023-04-15T05:58:15.575Z,9.40
2023-04-15T05:58:47.231Z,9.34
2023-04-15T05:59:18.983Z,9.38
2023-04-15T05:59:52.836Z,9.43
2023-04-15T06:00:24.472Z,9.58
2023-04-15T06:00:56.706Z,9.54
2023-04-15T06:01:28.390Z,9.55
2023-04-15T06:02:00.215Z,9.77
2023-04-15T06:02:31.966Z,9.96
2023-04-15T06:03:04.096Z,10.01
2023-04-15T06:03:36.516Z,10.09
2023-04-15T06:04:08.264Z,10.26
2023-04-15T06:04:39.942Z,10.10
2023-04-15T06:05:12.064Z,10.22
2023-04-15T06:05:45.043Z,10.20
2023-04-15T06:06:16.717Z,10.42
2023-04-15T06:06:48.347Z,10.29
2023-04-15T06:07:20.020Z,10.28
2023-04-15T06:07:51.742Z,10.40
2023-04-15T06:08:23.360Z,10.65
2023-04-15T06:08:55.974Z,10.72
2023-04-15T06:09:28.985Z,10.77
2023-04-15T06:10:00.842Z,10.64
2023-04-15T06:10:36.703Z,10.40
2023-04-15T06:11:08.481Z,10.14
2023-04-15T06:11:41.434Z,10.23
2023-04-15T06:12:13.323Z,10.22
2023-04-15T06:12:47.419Z,10.20
2023-04-15T06:13:18.997Z,10.17
2023-04-15T06:13:50.602Z,10.06
2023-04-15T06:14:22.419Z,10.17
2023-04-15T06:14:54.029Z,10.10
2023-04-15T06:15:25.758Z,9.96
2023-04-15T06:15:57.443Z,10.12
2023-04-15T06:16:29.154Z,10.10
2023-04-15T06:17:00.793Z,10.14
2023-04-15T06:17:32.411Z,10.09
2023-04-15T06:18:04.205Z,9.99
2023-04-15T06:18:35.828Z,9.72
2023-04-15T06:19:07.436Z,9.75
2023-04-15T06:19:39.154Z,9.48
2023-04-15T06:20:11.558Z,9.52
2023-04-15T06:20:43.180Z,9.64
2023-04-15T06:21:15.740Z,9.68
2023-04-15T06:21:47.446Z,9.71
2023-04-15T06:22:19.083Z,9.81
2023-04-15T06:22:50.703Z,9.68
2023-04-15T06:23:22.404Z,9.59
2023-04-15T06:23:54.032Z,9.41
2023-04-15T06:24:25.774Z,9.45
2023-04-15T06:24:57.599Z,9.47
2023-04-15T06:25:29.192Z,9.67
2023-04-15T06:26:01.176Z,9.70
2023-04-15T06:26:32.772Z,9.81
2023-04-15T06:27:04.591Z,10.02
2023-04-15T06:27:36.264Z,10.01
2023-04-15T06:28:07.914Z,10.08
2023-04-15T06:28:39.538Z,10.01
2023-04-15T06:29:11.390Z,10.08
2023-04-15T06:29:43.051Z,10.05
2023-04-15T06:30:14.762Z,10.10
2023-04-15T06:30:46.379Z,10.01
2023-04-15T06:31:18.115Z,10.13
2023-04-15T06:31:50.242Z,10.23
2023-04-15T06:32:21.931Z,10.28
2023-04-15T06:32:54.866Z,10.33
2023-04-15T06:33:26.492Z,10.19
2023-04-15T06:33:58.087Z,10.24
2023-04-15T06:34:29.708Z,10.22
2023-04-15T06:35:01.440Z,10.29
2023-04-15T06:35:33.132Z,10.42
2023-04-15T06:36:04.946Z,10.39
2023-04-15T06:36:36.534Z,10.43
2023-04-15T06:37:10.096Z,10.54
2023-04-15T06:37:41.686Z,10.65
2023-04-15T06:38:14.468Z,10.72
2023-04-15T06:38:46.064Z,10.82
2023-04-15T06:39:17.689Z,10.74
2023-04-15T06:39:49.299Z,10.82
2023-04-15T06:40:21.054Z,10.98
2023-04-15T06:40:52.659Z,10.85
2023-04-15T06:41:24.395Z,10.81
2023-04-15T06:41:56.547Z,10.90
2023-04-15T06:42:28.225Z,10.87
2023-04-15T06:42:59.840Z,10.71
2023-04-15T06:43:31.481Z,10.95
2023-04-15T06:44:03.418Z,11.04
2023-04-15T06:44:35.232Z,11.38
2023-04-15T06:45:07.399Z,11.53
2023-04-15T06:45:39.617Z,11.35
2023-04-15T06:46:11.582Z,11.42
2023-04-15T06:46:43.207Z,11.56
2023-04-15T06:47:15.494Z,11.80
2023-04-15T06:47:47.211Z,12.08
2023-04-15T06:48:18.953Z,12.17
2023-04-15T06:48:50.531Z,12.17
2023-04-15T06:49:22.390Z,12.35
2023-04-15T06:49:54.477Z,12.21
2023-04-15T06:50:26.383Z,12.27
2023-04-15T06:50:58.894Z,12.20
2023-04-15T06:51:31.475Z,12.32
2023-04-15T06:52:04.479Z,12.66
2023-04-15T06:52:36.229Z,12.85
2023-04-15T06:53:07.869Z,12.85
2023-04-15T06:53:41.250Z,13.07
2023-04-15T06:54:12.905Z,12.90
2023-04-15T06:54:44.513Z,12.86
2023-04-15T06:55:16.458Z,12.65
2023-04-15T06:55:48.049Z,12.73
2023-04-15T06:56:19.623Z,12.72
2023-04-15T06:56:51.687Z,12.66
2023-04-15T06:57:23.392Z,12.53
2023-04-15T06:57:55.031Z,12.52
2023-04-15T06:58:26.670Z,12.48
2023-04-15T06:58:58.402Z,12.35
2023-04-15T06:59:30.109Z,12.16
2023-04-15T07:00:02.116Z,12.25
2023-04-15T07:00:39.786Z,12.31
2023-04-15T07:01:12.268Z,12.18
2023-04-15T07:01:44.092Z,12.24
2023-04-15T07:02:15.803Z,12.14
2023-04-15T07:02:48.024Z,12.07
2023-04-15T07:03:19.834Z,12.27
2023-04-15T07:03:51.714Z,12.27
2023-04-15T07:04:24.561Z,12.41
2023-04-15T07:04:57.050Z,12.52
2023-04-15T07:05:28.663Z,12.65